Time;durP1;ratioP1;P1;durP2;ratioP2;P2;SDS_P1;SDS_P2;PMS_P1;PMS_P2;Temp;Humidity;BMP_temperature;BMP_pressure;BME280_temperature;BME280_humidity;BME280_pressure;Samples;Min_cycle;Max_cycle;Signal;HPM_P1;HPM_P2
2020/12/19 00:02:20;;;;;;;;;;;7.70;79.40;;;;;;5074069;28;19962;-83
2020/12/19 00:04:46;;;;;;;;;;;7.70;79.50;;;;;;5067537;28;19951;-84
2020/12/19 00:07:11;;;;;;;;;;;7.70;79.40;;;;;;5092585;28;19908;-84
2020/12/19 00:09:37;;;;;;;;;;;7.70;79.50;;;;;;5092142;28;19923;-84
2020/12/19 00:12:05;;;;;;;;;;;7.70;79.50;;;;;;5092968;28;20251;-83
2020/12/19 00:14:31;;;;;;;;;;;7.70;79.50;;;;;;5092134;28;20056;-83
2020/12/19 00:16:56;;;;;;;;;;;7.70;79.50;;;;;;5093056;28;20391;-83
2020/12/19 00:19:22;;;;;;;;;;;7.60;79.40;;;;;;5075324;28;19920;-83
2020/12/19 00:21:47;;;;;;;;;;;7.60;79.40;;;;;;5092152;28;19912;-83
2020/12/19 00:24:13;;;;;;;;;;;7.70;79.50;;;;;;5092296;28;20366;-83
2020/12/19 00:26:39;;;;;;;;;;;7.60;79.40;;;;;;5092478;28;20230;-83
2020/12/19 00:29:05;;;;;;;;;;;7.60;79.40;;;;;;5075562;28;19970;-83
2020/12/19 00:31:31;;;;;;;;;;;7.60;80.10;;;;;;5092241;28;19923;-84
2020/12/19 00:33:57;;;;;;;;;;;7.60;79.50;;;;;;5092460;28;19908;-84
2020/12/19 00:36:22;;;;;;;;;;;7.60;79.60;;;;;;5067348;28;19922;-84
2020/12/19 00:38:48;;;;;;;;;;;7.60;80.20;;;;;;5092549;28;19916;-83
2020/12/19 00:41:15;;;;;;;;;;;7.60;79.60;;;;;;5093786;28;19921;-83
2020/12/19 00:43:43;;;;;;;;;;;7.60;79.60;;;;;;5094942;28;19995;-83
2020/12/19 00:46:15;;;;;;;;;;;7.60;79.60;;;;;;5094496;28;19999;-83
2020/12/19 00:48:41;;;;;;;;;;;7.50;79.50;;;;;;5094014;28;20319;-83
2020/12/19 00:51:13;;;;;;;;;;;7.60;79.60;;;;;;5092656;28;19919;-83
2020/12/19 00:53:39;;;;;;;;;;;7.50;79.60;;;;;;5092225;28;19955;-83
2020/12/19 00:56:04;;;;;;;;;;;7.50;79.60;;;;;;5089774;28;19936;-83
2020/12/19 00:58:30;;;;;;;;;;;7.50;79.60;;;;;;5075380;28;20273;-83
2020/12/19 01:00:55;;;;;;;;;;;7.50;79.70;;;;;;5075957;28;19958;-83
2020/12/19 01:03:21;;;;;;;;;;;7.50;79.70;;;;;;5092034;28;19908;-83
2020/12/19 01:05:46;;;;;;;;;;;7.50;79.70;;;;;;5092841;28;19913;-83
2020/12/19 01:08:12;;;;;;;;;;;7.50;79.70;;;;;;5076029;28;19912;-83
2020/12/19 01:10:37;;;;;;;;;;;7.50;79.80;;;;;;5074969;28;20285;-83
2020/12/19 01:13:03;;;;;;;;;;;7.50;79.70;;;;;;5092848;28;19908;-83
2020/12/19 01:15:28;;;;;;;;;;;7.50;79.70;;;;;;5073386;28;20089;-83
2020/12/19 01:17:54;;;;;;;;;;;7.50;79.80;;;;;;5092785;28;19919;-83
2020/12/19 01:20:19;;;;;;;;;;;7.50;79.80;;;;;;5075937;28;19922;-83
2020/12/19 01:22:45;;;;;;;;;;;7.50;79.80;;;;;;5092925;28;19912;-84
2020/12/19 01:25:11;;;;;;;;;;;7.50;80.40;;;;;;5092778;28;20249;-83
2020/12/19 01:27:37;;;;;;;;;;;7.40;79.70;;;;;;5092153;28;19919;-83
2020/12/19 01:30:03;;;;;;;;;;;7.40;79.70;;;;;;5094019;28;19908;-83
2020/12/19 01:32:28;;;;;;;;;;;7.40;79.80;;;;;;5074805;28;19916;-83
2020/12/19 01:34:54;;;;;;;;;;;7.40;79.80;;;;;;5075740;28;19970;-83
2020/12/19 01:37:19;;;;;;;;;;;7.40;79.80;;;;;;5083784;28;19956;-83
2020/12/19 01:39:45;;;;;;;;;;;7.40;79.90;;;;;;5084545;28;20005;-83
2020/12/19 01:42:11;;;;;;;;;;;7.40;79.90;;;;;;5085931;28;19916;-83
2020/12/19 01:44:36;;;;;;;;;;;7.40;79.90;;;;;;5092220;28;19915;-83
2020/12/19 01:47:02;;;;;;;;;;;7.40;79.90;;;;;;5094437;28;19954;-83
2020/12/19 01:49:33;;;;;;;;;;;7.40;80.00;;;;;;5092242;28;19917;-83
2020/12/19 01:52:00;;;;;;;;;;;7.30;79.90;;;;;;5092370;28;20380;-83
2020/12/19 01:54:26;;;;;;;;;;;7.30;80.00;;;;;;5092110;28;20268;-83
2020/12/19 01:56:51;;;;;;;;;;;7.30;80.00;;;;;;5092605;28;19908;-83
2020/12/19 01:59:18;;;;;;;;;;;7.30;80.10;;;;;;5092515;28;19967;-83
2020/12/19 02:01:48;;;;;;;;;;;7.30;80.10;;;;;;5091800;28;19962;-83
2020/12/19 02:04:14;;;;;;;;;;;7.30;80.10;;;;;;5092197;28;19938;-83
2020/12/19 02:06:40;;;;;;;;;;;7.30;80.20;;;;;;5091703;28;20323;-83
2020/12/19 02:09:06;;;;;;;;;;;7.30;80.30;;;;;;5092217;28;19931;-81
2020/12/19 02:11:32;;;;;;;;;;;7.30;80.30;;;;;;5089935;28;19919;-83
2020/12/19 02:13:57;;;;;;;;;;;7.30;80.20;;;;;;5055071;28;19917;-83
2020/12/19 02:16:23;;;;;;;;;;;7.30;80.30;;;;;;5076955;28;19944;-83
2020/12/19 02:18:49;;;;;;;;;;;7.30;80.30;;;;;;5093471;28;20328;-84
2020/12/19 02:21:14;;;;;;;;;;;7.30;80.40;;;;;;5093284;28;19942;-83
2020/12/19 02:23:40;;;;;;;;;;;7.20;80.50;;;;;;5091807;28;19973;-83
2020/12/19 02:26:05;;;;;;;;;;;7.20;80.50;;;;;;5092193;28;19908;-83
2020/12/19 02:28:31;;;;;;;;;;;7.20;80.70;;;;;;5092024;28;19915;-83
2020/12/19 02:30:56;;;;;;;;;;;7.20;80.70;;;;;;5092100;28;20070;-83
2020/12/19 02:33:22;;;;;;;;;;;7.20;80.80;;;;;;5093140;28;19912;-83
2020/12/19 02:35:47;;;;;;;;;;;7.20;80.90;;;;;;5091743;28;19908;-83
2020/12/19 02:38:13;;;;;;;;;;;7.20;81.50;;;;;;5091548;28;20285;-83
2020/12/19 02:40:38;;;;;;;;;;;7.20;80.90;;;;;;5092995;28;19908;-83
2020/12/19 02:43:04;;;;;;;;;;;7.20;81.00;;;;;;5092308;28;20445;-83
2020/12/19 02:45:29;;;;;;;;;;;7.20;80.90;;;;;;5091684;28;19920;-83
2020/12/19 02:47:54;;;;;;;;;;;7.20;81.00;;;;;;5092561;28;19991;-83
2020/12/19 02:50:20;;;;;;;;;;;7.20;81.00;;;;;;5092055;28;19919;-83
2020/12/19 02:52:46;;;;;;;;;;;7.20;81.00;;;;;;5090497;28;20363;-84
2020/12/19 02:55:11;;;;;;;;;;;7.20;81.00;;;;;;5092518;28;19908;-83
2020/12/19 02:57:37;;;;;;;;;;;7.20;81.00;;;;;;5092070;28;20203;-82
2020/12/19 03:00:04;;;;;;;;;;;7.20;81.00;;;;;;5093378;28;19912;-82
2020/12/19 03:02:29;;;;;;;;;;;7.20;81.00;;;;;;5092815;28;19920;-83
2020/12/19 03:04:55;;;;;;;;;;;7.20;81.00;;;;;;5091384;28;19975;-83
2020/12/19 03:07:20;;;;;;;;;;;7.20;81.60;;;;;;5092045;28;19919;-83
2020/12/19 03:09:46;;;;;;;;;;;7.20;81.00;;;;;;5094812;28;20302;-83
2020/12/19 03:12:11;;;;;;;;;;;7.20;81.00;;;;;;5079036;28;19957;-83
2020/12/19 03:14:37;;;;;;;;;;;7.20;80.90;;;;;;5078648;28;19951;-83
2020/12/19 03:17:08;;;;;;;;;;;7.20;81.00;;;;;;5095772;28;19942;-84
2020/12/19 03:19:33;;;;;;;;;;;7.20;81.00;;;;;;5078960;28;20262;-83
2020/12/19 03:21:59;;;;;;;;;;;7.20;80.90;;;;;;5095521;28;19920;-83
2020/12/19 03:24:24;;;;;;;;;;;7.20;81.00;;;;;;5107580;22;20383;-82
2020/12/19 03:26:50;;;;;;;;;;;7.20;81.10;;;;;;5078032;28;19962;-82
2020/12/19 03:29:15;;;;;;;;;;;7.20;81.20;;;;;;5095258;28;19912;-82
2020/12/19 03:31:41;;;;;;;;;;;7.20;81.20;;;;;;5096231;28;20365;-82
2020/12/19 03:34:06;;;;;;;;;;;7.20;81.20;;;;;;5095029;28;19912;-82
2020/12/19 03:36:32;;;;;;;;;;;7.20;81.20;;;;;;5077824;28;19919;-82
2020/12/19 03:38:57;;;;;;;;;;;7.20;81.30;;;;;;5095807;28;19920;-82
2020/12/19 03:41:23;;;;;;;;;;;7.20;81.40;;;;;;5094727;28;19912;-82
2020/12/19 03:43:48;;;;;;;;;;;7.20;81.50;;;;;;5094490;28;19912;-82
2020/12/19 03:46:15;;;;;;;;;;;7.20;81.50;;;;;;5095844;28;19908;-82
2020/12/19 03:48:41;;;;;;;;;;;7.20;81.60;;;;;;5095729;28;19912;-82
2020/12/19 03:51:06;;;;;;;;;;;7.20;81.60;;;;;;5096145;28;19912;-82
2020/12/19 03:53:32;;;;;;;;;;;7.10;81.80;;;;;;5073865;28;20328;-82
2020/12/19 03:55:57;;;;;;;;;;;7.20;81.80;;;;;;5075484;28;19970;-82
2020/12/19 03:58:23;;;;;;;;;;;7.20;81.80;;;;;;5075375;28;20011;-82
2020/12/19 04:00:48;;;;;;;;;;;7.20;82.00;;;;;;5075423;28;20277;-82
2020/12/19 04:03:14;;;;;;;;;;;7.10;82.10;;;;;;5091495;28;19909;-82
2020/12/19 04:05:39;;;;;;;;;;;7.20;82.20;;;;;;5073974;28;19939;-82
2020/12/19 04:08:05;;;;;;;;;;;7.20;82.10;;;;;;5074146;28;20365;-82
2020/12/19 04:10:30;;;;;;;;;;;7.20;82.10;;;;;;5075214;28;19944;-82
2020/12/19 04:12:56;;;;;;;;;;;7.20;82.10;;;;;;5091119;28;20313;-82
2020/12/19 04:15:24;;;;;;;;;;;7.20;82.30;;;;;;5091227;28;20423;-82
2020/12/19 04:17:50;;;;;;;;;;;7.10;82.30;;;;;;5090602;28;20010;-82
2020/12/19 04:20:16;;;;;;;;;;;7.20;82.50;;;;;;5074404;28;19923;-81
2020/12/19 04:22:42;;;;;;;;;;;7.10;82.40;;;;;;5073082;28;19916;-82
2020/12/19 04:25:09;;;;;;;;;;;7.20;82.40;;;;;;5075446;28;19924;-82
2020/12/19 04:27:35;;;;;;;;;;;7.20;82.30;;;;;;5089693;28;19920;-82
2020/12/19 04:30:00;;;;;;;;;;;7.20;82.30;;;;;;5089658;28;19908;-83
2020/12/19 04:32:26;;;;;;;;;;;7.20;82.30;;;;;;5072657;28;19916;-83
2020/12/19 04:34:51;;;;;;;;;;;7.20;82.30;;;;;;5073719;28;19966;-82
2020/12/19 04:37:17;;;;;;;;;;;7.20;82.40;;;;;;5072653;28;19923;-83
2020/12/19 04:39:42;;;;;;;;;;;7.20;82.50;;;;;;5072112;28;19966;-82
2020/12/19 04:42:08;;;;;;;;;;;7.20;82.60;;;;;;5079172;28;19962;-82
2020/12/19 04:44:34;;;;;;;;;;;7.20;82.60;;;;;;5093051;28;19939;-82
2020/12/19 04:46:59;;;;;;;;;;;7.20;82.50;;;;;;5093836;28;19908;-82
2020/12/19 04:49:25;;;;;;;;;;;7.20;82.50;;;;;;5059252;28;19916;-82
2020/12/19 04:51:50;;;;;;;;;;;7.20;82.50;;;;;;5092850;28;19918;-83
2020/12/19 04:54:16;;;;;;;;;;;7.20;82.50;;;;;;5092396;28;20369;-82
2020/12/19 04:56:42;;;;;;;;;;;7.20;82.70;;;;;;5093176;28;19947;-82
2020/12/19 04:59:08;;;;;;;;;;;7.20;82.70;;;;;;5092425;28;19920;-82
2020/12/19 05:01:33;;;;;;;;;;;7.20;82.70;;;;;;5091572;28;19919;-83
2020/12/19 05:03:59;;;;;;;;;;;7.20;82.60;;;;;;5093226;28;19923;-82
2020/12/19 05:06:26;;;;;;;;;;;7.20;82.60;;;;;;5093545;28;19918;-82
2020/12/19 05:08:52;;;;;;;;;;;7.20;83.30;;;;;;5092620;28;19908;-82
2020/12/19 05:11:18;;;;;;;;;;;7.20;82.70;;;;;;5092098;28;19965;-82
2020/12/19 05:13:44;;;;;;;;;;;7.20;82.80;;;;;;5091780;28;19915;-83
2020/12/19 05:16:10;;;;;;;;;;;7.20;82.80;;;;;;5093362;28;19915;-83
2020/12/19 05:18:36;;;;;;;;;;;7.20;82.70;;;;;;5093019;28;20015;-82
2020/12/19 05:21:03;;;;;;;;;;;7.30;82.70;;;;;;5091819;28;19916;-82
2020/12/19 05:23:29;;;;;;;;;;;7.30;82.60;;;;;;5091608;28;19924;-82
2020/12/19 05:25:55;;;;;;;;;;;7.30;82.60;;;;;;5075019;28;19913;-82
2020/12/19 05:28:21;;;;;;;;;;;7.30;82.50;;;;;;5093957;28;20366;-82
2020/12/19 05:30:46;;;;;;;;;;;7.30;82.50;;;;;;5092200;28;19952;-83
2020/12/19 05:33:12;;;;;;;;;;;7.30;82.50;;;;;;5073457;28;19917;-82
2020/12/19 05:35:38;;;;;;;;;;;7.30;82.40;;;;;;5072428;28;19923;-82
2020/12/19 05:38:04;;;;;;;;;;;7.30;82.40;;;;;;5091853;28;19965;-82
2020/12/19 05:40:30;;;;;;;;;;;7.30;82.50;;;;;;5093722;28;19908;-82
2020/12/19 05:42:56;;;;;;;;;;;7.30;82.50;;;;;;5092014;28;20050;-82
2020/12/19 05:45:23;;;;;;;;;;;7.30;82.50;;;;;;5093722;28;19919;-82
2020/12/19 05:47:49;;;;;;;;;;;7.30;82.60;;;;;;5093210;28;19957;-82
2020/12/19 05:50:14;;;;;;;;;;;7.30;82.60;;;;;;5091253;28;19994;-82
2020/12/19 05:52:43;;;;;;;;;;;7.30;82.50;;;;;;5090395;28;19920;-82
2020/12/19 05:55:10;;;;;;;;;;;7.30;82.50;;;;;;5092203;28;19912;-82
2020/12/19 05:57:36;;;;;;;;;;;7.30;82.50;;;;;;5091894;28;19908;-82
2020/12/19 06:00:06;;;;;;;;;;;7.30;82.40;;;;;;5091918;28;19912;-82
2020/12/19 06:02:32;;;;;;;;;;;7.30;82.40;;;;;;5093453;28;19934;-82
2020/12/19 06:05:01;;;;;;;;;;;7.30;82.50;;;;;;5091728;28;19917;-82
2020/12/19 06:07:34;;;;;;;;;;;7.30;82.50;;;;;;5091745;28;19912;-82
2020/12/19 06:09:59;;;;;;;;;;;7.30;82.60;;;;;;5091638;28;19963;-82
2020/12/19 06:12:44;;;;;;;;;;;7.30;82.60;;;;;;5091853;28;20026;-82
2020/12/19 06:15:15;;;;;;;;;;;7.30;82.50;;;;;;5091798;28;19914;-82
2020/12/19 06:17:56;;;;;;;;;;;7.30;82.50;;;;;;5092529;28;19915;-82
2020/12/19 06:20:22;;;;;;;;;;;7.30;82.50;;;;;;5093080;28;20377;-82
2020/12/19 06:22:47;;;;;;;;;;;7.30;82.60;;;;;;5091159;28;19946;-82
2020/12/19 06:25:33;;;;;;;;;;;7.30;82.70;;;;;;5074381;28;19920;-82
2020/12/19 06:27:58;;;;;;;;;;;7.30;82.80;;;;;;5092024;28;19913;-82
2020/12/19 06:30:28;;;;;;;;;;;7.30;82.70;;;;;;5091569;28;20357;-82
2020/12/19 06:33:06;;;;;;;;;;;7.30;82.70;;;;;;5093014;28;20366;-82
2020/12/19 06:35:31;;;;;;;;;;;7.30;83.20;;;;;;5092018;28;19908;-82
2020/12/19 06:37:57;;;;;;;;;;;7.30;82.60;;;;;;5091596;28;19917;-81
2020/12/19 06:40:22;;;;;;;;;;;7.30;82.50;;;;;;5075069;28;20315;-83
2020/12/19 06:42:49;;;;;;;;;;;7.30;82.50;;;;;;5091668;28;19912;-82
2020/12/19 06:45:21;;;;;;;;;;;7.30;82.50;;;;;;5091336;28;19942;-82
2020/12/19 06:47:47;;;;;;;;;;;7.30;82.40;;;;;;5091085;28;19920;-83
2020/12/19 06:50:13;;;;;;;;;;;7.30;82.40;;;;;;5091747;28;19914;-82
2020/12/19 06:52:38;;;;;;;;;;;7.30;82.50;;;;;;5085618;28;19983;-80
2020/12/19 06:55:20;;;;;;;;;;;7.30;82.50;;;;;;5091608;28;19912;-84
2020/12/19 06:57:49;;;;;;;;;;;7.30;82.50;;;;;;5091274;28;19908;-84
2020/12/19 07:00:19;;;;;;;;;;;7.30;82.50;;;;;;5092208;28;19916;-85
2020/12/19 07:02:49;;;;;;;;;;;7.30;82.60;;;;;;5091180;28;19908;-85
2020/12/19 07:05:18;;;;;;;;;;;7.30;82.70;;;;;;5092563;28;19912;-83
2020/12/19 07:07:43;;;;;;;;;;;7.30;82.80;;;;;;5090396;28;19962;-83
2020/12/19 07:10:09;;;;;;;;;;;7.30;82.80;;;;;;5090836;28;19912;-83
2020/12/19 07:12:35;;;;;;;;;;;7.30;82.90;;;;;;5092268;28;19912;-83
2020/12/19 07:15:01;;;;;;;;;;;7.30;83.10;;;;;;5090968;28;19916;-85
2020/12/19 07:17:27;;;;;;;;;;;7.30;83.00;;;;;;5091226;28;19912;-85
2020/12/19 07:19:57;;;;;;;;;;;7.30;82.90;;;;;;5090350;28;20431;-83
2020/12/19 07:22:24;;;;;;;;;;;7.40;83.00;;;;;;5092686;28;20264;-82
2020/12/19 07:24:55;;;;;;;;;;;7.40;83.00;;;;;;5090270;28;20438;-83
2020/12/19 07:27:24;;;;;;;;;;;7.40;82.90;;;;;;5090921;28;19909;-84
2020/12/19 07:30:11;;;;;;;;;;;7.30;83.30;;;;;;5090348;28;19913;-83
2020/12/19 07:32:40;;;;;;;;;;;7.30;83.30;;;;;;5086576;28;20056;-85
2020/12/19 07:35:05;;;;;;;;;;;7.40;83.30;;;;;;5088313;28;19912;-83
2020/12/19 07:37:32;;;;;;;;;;;7.40;83.40;;;;;;5091486;28;20392;-83
2020/12/19 07:40:07;;;;;;;;;;;7.40;83.50;;;;;;5090643;28;19963;-83
2020/12/19 07:42:33;;;;;;;;;;;7.40;83.40;;;;;;5092431;28;19915;-83
2020/12/19 07:44:58;;;;;;;;;;;7.40;83.40;;;;;;5090712;28;20284;-83
2020/12/19 07:47:27;;;;;;;;;;;7.40;83.30;;;;;;5092663;28;20000;-83
2020/12/19 07:49:53;;;;;;;;;;;7.40;83.30;;;;;;5091151;28;19912;-83
2020/12/19 07:52:19;;;;;;;;;;;7.50;83.30;;;;;;5092464;28;19916;-83
2020/12/19 07:54:57;;;;;;;;;;;7.50;83.20;;;;;;5092515;28;19916;-83
2020/12/19 07:57:24;;;;;;;;;;;7.50;83.20;;;;;;5094416;28;19998;-83
2020/12/19 07:59:55;;;;;;;;;;;7.50;83.10;;;;;;5095917;28;19912;-83
2020/12/19 08:02:21;;;;;;;;;;;7.60;83.10;;;;;;5096104;28;19915;-83
2020/12/19 08:04:51;;;;;;;;;;;7.60;83.00;;;;;;5094110;28;19958;-83
2020/12/19 08:07:18;;;;;;;;;;;7.60;83.00;;;;;;5096025;28;19915;-83
2020/12/19 08:09:43;;;;;;;;;;;7.60;82.90;;;;;;5095722;28;20366;-83
2020/12/19 08:12:09;;;;;;;;;;;7.60;82.80;;;;;;5095760;28;19912;-83
2020/12/19 08:14:35;;;;;;;;;;;7.60;82.80;;;;;;5095842;28;19912;-83
2020/12/19 08:17:01;;;;;;;;;;;7.60;82.80;;;;;;5077326;28;19912;-83
2020/12/19 08:19:32;;;;;;;;;;;7.60;82.70;;;;;;5095843;28;20250;-83
2020/12/19 08:22:01;;;;;;;;;;;7.70;82.80;;;;;;5093939;28;19916;-83
2020/12/19 08:24:27;;;;;;;;;;;7.60;82.60;;;;;;5094407;28;20381;-83
2020/12/19 08:27:12;;;;;;;;;;;7.70;82.60;;;;;;5094370;28;19912;-83
2020/12/19 08:29:38;;;;;;;;;;;7.70;82.60;;;;;;5063519;28;19978;-83
2020/12/19 08:32:03;;;;;;;;;;;7.70;82.70;;;;;;5101023;28;19955;-84
2020/12/19 08:34:30;;;;;;;;;;;7.70;82.70;;;;;;5103828;28;19918;-84
2020/12/19 08:36:55;;;;;;;;;;;7.70;82.70;;;;;;5092452;28;19916;-84
2020/12/19 08:39:21;;;;;;;;;;;7.70;82.90;;;;;;5076644;28;20383;-85
2020/12/19 08:41:46;;;;;;;;;;;7.70;83.00;;;;;;5094667;28;19923;-84
2020/12/19 08:44:24;;;;;;;;;;;7.80;83.10;;;;;;5094925;28;20243;-85
2020/12/19 08:47:03;;;;;;;;;;;7.80;83.10;;;;;;5074055;28;20406;-85
2020/12/19 08:49:29;;;;;;;;;;;7.80;83.30;;;;;;5075691;28;19931;-84
2020/12/19 08:51:55;;;;;;;;;;;7.80;83.80;;;;;;5085521;28;19913;-85
2020/12/19 08:54:22;;;;;;;;;;;7.90;83.90;;;;;;5086219;28;19919;-84
2020/12/19 08:56:49;;;;;;;;;;;7.90;84.20;;;;;;5089850;28;19948;-83
2020/12/19 08:59:23;;;;;;;;;;;7.90;84.20;;;;;;5091955;28;19923;-83
2020/12/19 09:01:48;;;;;;;;;;;8.00;84.20;;;;;;5094470;28;19912;-83
2020/12/19 09:04:14;;;;;;;;;;;8.00;84.20;;;;;;5076544;28;20345;-83
2020/12/19 09:06:50;;;;;;;;;;;8.00;84.60;;;;;;5074754;28;19913;-83
2020/12/19 09:09:28;;;;;;;;;;;8.10;84.80;;;;;;5095273;28;19908;-83
2020/12/19 09:12:06;;;;;;;;;;;8.10;84.70;;;;;;5076430;28;19919;-83
2020/12/19 09:14:32;;;;;;;;;;;8.10;84.90;;;;;;5093915;28;19908;-82
2020/12/19 09:16:57;;;;;;;;;;;8.20;84.70;;;;;;5095117;28;20349;-83
2020/12/19 09:19:23;;;;;;;;;;;8.30;84.70;;;;;;5076463;28;19923;-83
2020/12/19 09:21:57;;;;;;;;;;;8.30;84.80;;;;;;5073861;28;20237;-82
2020/12/19 09:24:23;;;;;;;;;;;8.30;85.10;;;;;;5078883;22;19931;-83
2020/12/19 09:26:49;;;;;;;;;;;8.40;84.90;;;;;;5071067;28;19920;-84
2020/12/19 09:29:14;;;;;;;;;;;8.40;84.90;;;;;;5072584;28;20364;-83
2020/12/19 09:31:40;;;;;;;;;;;8.50;85.30;;;;;;5058830;28;19916;-83
2020/12/19 09:34:06;;;;;;;;;;;8.50;85.10;;;;;;5094100;28;19935;-83
2020/12/19 09:36:31;;;;;;;;;;;8.60;85.20;;;;;;5073739;28;20006;-84
2020/12/19 09:38:57;;;;;;;;;;;8.60;85.20;;;;;;5086277;28;20015;-83
2020/12/19 09:41:22;;;;;;;;;;;8.70;85.30;;;;;;5053423;28;19924;-84
2020/12/19 09:43:48;;;;;;;;;;;8.70;85.30;;;;;;5071671;28;20288;-83
2020/12/19 09:46:14;;;;;;;;;;;8.80;85.40;;;;;;5090447;28;19916;-83
2020/12/19 09:48:40;;;;;;;;;;;8.80;85.10;;;;;;5089502;28;20276;-84
2020/12/19 09:51:05;;;;;;;;;;;8.90;85.40;;;;;;5073826;28;19912;-84
2020/12/19 09:53:31;;;;;;;;;;;9.00;85.40;;;;;;5088382;28;19924;-85
2020/12/19 09:55:56;;;;;;;;;;;9.00;85.20;;;;;;5069642;28;20395;-85
2020/12/19 09:58:22;;;;;;;;;;;9.00;85.30;;;;;;5078867;28;19919;-87
2020/12/19 10:00:47;;;;;;;;;;;9.10;85.40;;;;;;5059744;28;19918;-85
2020/12/19 10:03:13;;;;;;;;;;;9.20;85.40;;;;;;5092121;28;19931;-85
2020/12/19 10:05:38;;;;;;;;;;;9.20;85.40;;;;;;5075344;28;20039;-84
2020/12/19 10:08:04;;;;;;;;;;;9.30;85.70;;;;;;5091632;28;20362;-83
2020/12/19 10:10:29;;;;;;;;;;;9.30;85.50;;;;;;5090524;28;19957;-83
2020/12/19 10:12:55;;;;;;;;;;;9.40;85.40;;;;;;5093168;28;19908;-84
2020/12/19 10:15:20;;;;;;;;;;;9.50;85.30;;;;;;5092307;28;20001;-84
2020/12/19 10:17:46;;;;;;;;;;;9.50;85.20;;;;;;5068829;28;19924;-84
2020/12/19 10:20:11;;;;;;;;;;;9.60;85.20;;;;;;5092070;28;19916;-84
2020/12/19 10:22:37;;;;;;;;;;;9.70;85.00;;;;;;5091438;28;19920;-84
2020/12/19 10:25:03;;;;;;;;;;;9.70;84.90;;;;;;5070458;28;20292;-85
2020/12/19 10:27:28;;;;;;;;;;;9.80;84.90;;;;;;5092773;28;19915;-84
2020/12/19 10:29:54;;;;;;;;;;;9.90;85.00;;;;;;5091679;28;19908;-84
2020/12/19 10:32:23;;;;;;;;;;;10.00;85.10;;;;;;5088667;28;19913;-84
2020/12/19 10:34:50;;;;;;;;;;;10.00;85.00;;;;;;5072469;28;20001;-84
2020/12/19 10:37:15;;;;;;;;;;;10.10;85.10;;;;;;5065896;28;19912;-84
2020/12/19 10:39:41;;;;;;;;;;;10.20;85.30;;;;;;5073812;28;20448;-84
2020/12/19 10:42:06;;;;;;;;;;;10.30;84.90;;;;;;5071232;28;19912;-84
2020/12/19 10:44:32;;;;;;;;;;;10.40;84.90;;;;;;5095309;28;19908;-85
2020/12/19 10:46:58;;;;;;;;;;;10.50;85.30;;;;;;5091399;28;19912;-85
2020/12/19 10:49:24;;;;;;;;;;;10.60;84.50;;;;;;5092793;28;19927;-85
2020/12/19 10:51:50;;;;;;;;;;;10.70;84.50;;;;;;5090199;28;19920;-84
2020/12/19 10:54:15;;;;;;;;;;;10.80;84.30;;;;;;5088053;28;19916;-85
2020/12/19 10:56:40;;;;;;;;;;;10.80;84.10;;;;;;5091585;28;19972;-85
2020/12/19 10:59:06;;;;;;;;;;;10.90;83.90;;;;;;5074381;28;19919;-85
2020/12/19 11:01:32;;;;;;;;;;;11.00;83.70;;;;;;5098530;28;19998;-84
2020/12/19 11:03:57;;;;;;;;;;;11.10;83.60;;;;;;5097246;28;19970;-86
2020/12/19 11:06:24;;;;;;;;;;;11.20;83.40;;;;;;5082900;28;19952;-84
2020/12/19 11:08:50;;;;;;;;;;;11.30;83.30;;;;;;5089501;28;20537;-85
2020/12/19 11:11:19;;;;;;;;;;;11.40;83.20;;;;;;5095111;28;19912;-85
2020/12/19 11:13:45;;;;;;;;;;;11.40;83.00;;;;;;5091073;28;19912;-84
2020/12/19 11:16:22;;;;;;;;;;;11.50;82.90;;;;;;5087981;28;19913;-87
2020/12/19 11:18:47;;;;;;;;;;;11.60;82.80;;;;;;5085600;28;20002;-84
2020/12/19 11:21:13;;;;;;;;;;;11.60;82.60;;;;;;5085860;28;20057;-84
2020/12/19 11:23:39;;;;;;;;;;;11.70;82.40;;;;;;5071829;28;19985;-84
2020/12/19 11:26:04;;;;;;;;;;;11.80;82.30;;;;;;5089594;28;19916;-84
2020/12/19 11:28:30;;;;;;;;;;;11.90;82.10;;;;;;5086109;28;20365;-84
2020/12/19 11:30:55;;;;;;;;;;;12.00;82.00;;;;;;5069266;28;19912;-84
2020/12/19 11:33:22;;;;;;;;;;;12.00;81.70;;;;;;5079479;28;19948;-84
2020/12/19 11:35:47;;;;;;;;;;;12.10;81.50;;;;;;5081319;28;19924;-84
2020/12/19 11:38:13;;;;;;;;;;;12.20;81.30;;;;;;5064022;28;20384;-84
2020/12/19 11:40:40;;;;;;;;;;;12.30;81.20;;;;;;5056326;28;19920;-84
2020/12/19 11:43:05;;;;;;;;;;;12.30;81.10;;;;;;5066240;28;20332;-84
2020/12/19 11:45:31;;;;;;;;;;;12.40;80.70;;;;;;5075324;28;19928;-84
2020/12/19 11:47:56;;;;;;;;;;;12.40;80.60;;;;;;5091649;28;20376;-84
2020/12/19 11:50:22;;;;;;;;;;;12.50;80.50;;;;;;5073958;28;20276;-83
2020/12/19 11:52:47;;;;;;;;;;;12.50;80.40;;;;;;5092620;28;19920;-84
2020/12/19 11:55:13;;;;;;;;;;;12.60;80.10;;;;;;5083229;28;19912;-84
2020/12/19 11:57:38;;;;;;;;;;;12.60;80.20;;;;;;5092077;28;20317;-84
2020/12/19 12:00:05;;;;;;;;;;;12.70;80.20;;;;;;5075548;28;19912;-84
2020/12/19 12:02:30;;;;;;;;;;;12.70;80.10;;;;;;5092511;28;19916;-84
2020/12/19 12:04:56;;;;;;;;;;;12.70;80.00;;;;;;5091711;28;19912;-84
2020/12/19 12:07:21;;;;;;;;;;;12.70;80.10;;;;;;5075688;28;20293;-84
2020/12/19 12:09:47;;;;;;;;;;;12.70;79.80;;;;;;5072951;28;20005;-84
2020/12/19 12:12:12;;;;;;;;;;;12.80;79.80;;;;;;5094969;28;20054;-84
2020/12/19 12:14:38;;;;;;;;;;;12.80;79.80;;;;;;5093693;28;20010;-85
2020/12/19 12:17:03;;;;;;;;;;;12.80;79.60;;;;;;5076937;28;20577;-84
2020/12/19 12:19:29;;;;;;;;;;;12.80;79.30;;;;;;5094174;28;19923;-85
2020/12/19 12:21:54;;;;;;;;;;;12.80;79.40;;;;;;5094185;28;20289;-84
2020/12/19 12:24:20;;;;;;;;;;;12.90;79.60;;;;;;5090731;28;20478;-84
2020/12/19 12:26:46;;;;;;;;;;;12.90;79.50;;;;;;5079389;28;19963;-84
2020/12/19 12:29:14;;;;;;;;;;;12.90;79.60;;;;;;5110572;28;19912;-85
2020/12/19 12:31:41;;;;;;;;;;;12.90;79.60;;;;;;5095264;28;19913;-84
2020/12/19 12:34:07;;;;;;;;;;;13.00;79.60;;;;;;5090013;28;20364;-85
2020/12/19 12:36:32;;;;;;;;;;;13.00;79.50;;;;;;5073654;28;19944;-84
2020/12/19 12:38:58;;;;;;;;;;;13.00;79.50;;;;;;5081824;28;19926;-84
2020/12/19 12:41:26;;;;;;;;;;;13.00;79.40;;;;;;5113545;28;19973;-84
2020/12/19 12:43:55;;;;;;;;;;;13.00;79.30;;;;;;5113152;28;19908;-84
2020/12/19 12:46:21;;;;;;;;;;;13.00;79.20;;;;;;5114355;28;19931;-84
2020/12/19 12:48:47;;;;;;;;;;;13.00;79.20;;;;;;5113783;28;20349;-84
2020/12/19 12:51:13;;;;;;;;;;;13.10;79.20;;;;;;5097068;28;19912;-84
2020/12/19 12:53:39;;;;;;;;;;;13.00;79.20;;;;;;5099856;28;19920;-84
2020/12/19 12:56:05;;;;;;;;;;;13.10;78.90;;;;;;5074688;28;19916;-84
2020/12/19 12:58:36;;;;;;;;;;;13.10;78.70;;;;;;5073648;28;20239;-84
2020/12/19 13:01:02;;;;;;;;;;;13.10;78.80;;;;;;5059827;28;19923;-84
2020/12/19 13:03:28;;;;;;;;;;;13.10;78.80;;;;;;5074949;28;20313;-84
2020/12/19 13:05:53;;;;;;;;;;;13.10;78.70;;;;;;5074871;28;20376;-84
2020/12/19 13:08:31;;;;;;;;;;;13.10;78.70;;;;;;5094951;28;19916;-85
2020/12/19 13:10:56;;;;;;;;;;;13.10;77.90;;;;;;5093191;28;19987;-85
2020/12/19 13:13:22;;;;;;;;;;;13.10;78.20;;;;;;5093591;28;20340;-84
2020/12/19 13:15:50;;;;;;;;;;;13.10;78.30;;;;;;5076217;28;19912;-84
2020/12/19 13:18:16;;;;;;;;;;;13.10;78.30;;;;;;5072647;28;20350;-85
2020/12/19 13:20:42;;;;;;;;;;;13.10;78.30;;;;;;5109515;28;19911;-84
2020/12/19 13:23:08;;;;;;;;;;;13.10;78.30;;;;;;5081956;28;19987;-84
2020/12/19 13:25:33;;;;;;;;;;;13.10;78.30;;;;;;5062331;28;19916;-84
2020/12/19 13:28:02;;;;;;;;;;;13.20;78.30;;;;;;5074298;28;19927;-85
2020/12/19 13:30:33;;;;;;;;;;;13.10;77.90;;;;;;5093710;28;19916;-84
2020/12/19 13:33:01;;;;;;;;;;;13.10;77.60;;;;;;5093242;28;20002;-84
2020/12/19 13:35:31;;;;;;;;;;;13.10;77.60;;;;;;5091962;28;19939;-84
2020/12/19 13:37:57;;;;;;;;;;;13.10;77.70;;;;;;5091755;28;19919;-85
2020/12/19 13:40:33;;;;;;;;;;;13.10;77.40;;;;;;5093145;28;19912;-85
2020/12/19 13:43:01;;;;;;;;;;;13.10;77.60;;;;;;5092819;28;19993;-85
2020/12/19 13:45:28;;;;;;;;;;;13.10;77.60;;;;;;5091914;28;19912;-85
2020/12/19 13:48:03;;;;;;;;;;;13.20;77.60;;;;;;5092333;28;19915;-85
2020/12/19 13:50:31;;;;;;;;;;;13.20;77.60;;;;;;5088602;28;20332;-85
2020/12/19 13:53:02;;;;;;;;;;;13.20;77.60;;;;;;5090800;28;19915;-85
2020/12/19 13:55:31;;;;;;;;;;;13.20;77.80;;;;;;5081280;28;19908;-85
2020/12/19 13:58:00;;;;;;;;;;;13.20;77.70;;;;;;5089070;28;19919;-84
2020/12/19 14:00:26;;;;;;;;;;;13.10;78.20;;;;;;5092215;28;19908;-85
2020/12/19 14:02:51;;;;;;;;;;;13.20;77.60;;;;;;5091637;28;19946;-85
2020/12/19 14:05:30;;;;;;;;;;;13.20;77.60;;;;;;5093345;28;19908;-86
2020/12/19 14:10:58;;;;;;;;;;;13.10;77.30;;;;;;5091383;28;19923;-86
2020/12/19 14:13:24;;;;;;;;;;;13.10;77.40;;;;;;5090667;28;19920;-86
2020/12/19 14:15:49;;;;;;;;;;;13.10;77.40;;;;;;5087703;28;20321;-84
2020/12/19 14:18:15;;;;;;;;;;;13.10;77.50;;;;;;5070446;28;19916;-85
2020/12/19 14:20:44;;;;;;;;;;;13.10;77.50;;;;;;5072682;28;19920;-85
2020/12/19 14:23:09;;;;;;;;;;;13.20;77.70;;;;;;5091116;28;19977;-85
2020/12/19 14:25:35;;;;;;;;;;;13.20;77.70;;;;;;5089780;28;20406;-84
2020/12/19 14:28:01;;;;;;;;;;;13.20;77.70;;;;;;5087860;28;20442;-84